sensor_id;sensor_type;location;lat;lon;timestamp;P1;durP1;ratioP1;P2;durP2;ratioP2
42884;SDS011;28534;48.100;11.584;2022-07-24T00:01:42;9.40;;;8.60;;
42884;SDS011;28534;48.100;11.584;2022-07-24T00:11:45;9.60;;;8.68;;
42884;SDS011;28534;48.100;11.584;2022-07-24T00:21:47;9.13;;;8.32;;
42884;SDS011;28534;48.100;11.584;2022-07-24T00:31:50;9.13;;;8.23;;
42884;SDS011;28534;48.100;11.584;2022-07-24T00:41:52;9.20;;;8.40;;
42884;SDS011;28534;48.100;11.584;2022-07-24T00:51:55;9.65;;;8.57;;
42884;SDS011;28534;48.100;11.584;2022-07-24T01:01:57;9.63;;;8.73;;
42884;SDS011;28534;48.100;11.584;2022-07-24T01:12:00;9.60;;;8.70;;
42884;SDS011;28534;48.100;11.584;2022-07-24T01:22:04;8.55;;;7.75;;
42884;SDS011;28534;48.100;11.584;2022-07-24T01:32:06;8.93;;;8.05;;
42884;SDS011;28534;48.100;11.584;2022-07-24T01:42:09;9.32;;;8.43;;
42884;SDS011;28534;48.100;11.584;2022-07-24T01:52:11;8.43;;;7.68;;
42884;SDS011;28534;48.100;11.584;2022-07-24T02:02:14;8.85;;;8.05;;
42884;SDS011;28534;48.100;11.584;2022-07-24T02:12:16;8.98;;;8.18;;
42884;SDS011;28534;48.100;11.584;2022-07-24T02:22:19;8.73;;;7.93;;
42884;SDS011;28534;48.100;11.584;2022-07-24T02:32:21;8.63;;;7.80;;
42884;SDS011;28534;48.100;11.584;2022-07-24T02:42:24;8.40;;;7.60;;
42884;SDS011;28534;48.100;11.584;2022-07-24T02:52:26;8.60;;;7.80;;
42884;SDS011;28534;48.100;11.584;2022-07-24T03:02:29;9.05;;;8.23;;
42884;SDS011;28534;48.100;11.584;2022-07-24T03:12:31;9.00;;;8.20;;
42884;SDS011;28534;48.100;11.584;2022-07-24T03:22:34;8.60;;;7.80;;
42884;SDS011;28534;48.100;11.584;2022-07-24T03:32:36;7.90;;;7.20;;
42884;SDS011;28534;48.100;11.584;2022-07-24T03:42:39;8.48;;;7.57;;
42884;SDS011;28534;48.100;11.584;2022-07-24T03:52:41;8.00;;;7.30;;
42884;SDS011;28534;48.100;11.584;2022-07-24T04:02:44;8.18;;;7.45;;
42884;SDS011;28534;48.100;11.584;2022-07-24T04:12:46;7.97;;;7.28;;
42884;SDS011;28534;48.100;11.584;2022-07-24T04:22:49;7.68;;;6.97;;
42884;SDS011;28534;48.100;11.584;2022-07-24T04:32:51;8.98;;;7.80;;
42884;SDS011;28534;48.100;11.584;2022-07-24T04:42:54;8.15;;;7.35;;
42884;SDS011;28534;48.100;11.584;2022-07-24T04:52:56;8.80;;;8.00;;
42884;SDS011;28534;48.100;11.584;2022-07-24T05:02:59;8.32;;;7.47;;
42884;SDS011;28534;48.100;11.584;2022-07-24T05:13:01;7.65;;;6.85;;
42884;SDS011;28534;48.100;11.584;2022-07-24T05:23:04;9.05;;;7.75;;
42884;SDS011;28534;48.100;11.584;2022-07-24T05:33:06;12.07;;;8.88;;
42884;SDS011;28534;48.100;11.584;2022-07-24T05:43:09;12.35;;;10.00;;
42884;SDS011;28534;48.100;11.584;2022-07-24T05:53:11;11.55;;;10.32;;
42884;SDS011;28534;48.100;11.584;2022-07-24T06:03:14;13.35;;;10.70;;
42884;SDS011;28534;48.100;11.584;2022-07-24T06:13:16;17.90;;;13.07;;
42884;SDS011;28534;48.100;11.584;2022-07-24T06:23:19;17.48;;;12.40;;
42884;SDS011;28534;48.100;11.584;2022-07-24T06:33:21;11.70;;;10.60;;
42884;SDS011;28534;48.100;11.584;2022-07-24T06:43:24;11.82;;;10.63;;
42884;SDS011;28534;48.100;11.584;2022-07-24T06:53:26;13.43;;;10.85;;
42884;SDS011;28534;48.100;11.584;2022-07-24T07:03:29;17.35;;;12.23;;
42884;SDS011;28534;48.100;11.584;2022-07-24T07:13:30;15.45;;;10.73;;
42884;SDS011;28534;48.100;11.584;2022-07-24T07:23:34;15.02;;;10.18;;
42884;SDS011;28534;48.100;11.584;2022-07-24T07:33:35;11.82;;;10.27;;
42884;SDS011;28534;48.100;11.584;2022-07-24T07:43:39;13.20;;;11.40;;
42884;SDS011;28534;48.100;11.584;2022-07-24T07:53:41;11.73;;;10.40;;
42884;SDS011;28534;48.100;11.584;2022-07-24T08:03:44;12.52;;;10.80;;
42884;SDS011;28534;48.100;11.584;2022-07-24T08:13:46;12.60;;;10.98;;
42884;SDS011;28534;48.100;11.584;2022-07-24T08:23:49;11.73;;;10.63;;
42884;SDS011;28534;48.100;11.584;2022-07-24T08:33:51;12.35;;;10.55;;
42884;SDS011;28534;48.100;11.584;2022-07-24T08:43:54;11.13;;;9.93;;
42884;SDS011;28534;48.100;11.584;2022-07-24T08:53:56;11.70;;;10.50;;
42884;SDS011;28534;48.100;11.584;2022-07-24T09:03:59;12.23;;;10.43;;
42884;SDS011;28534;48.100;11.584;2022-07-24T09:14:01;11.73;;;10.52;;
42884;SDS011;28534;48.100;11.584;2022-07-24T09:24:22;14.25;;;10.30;;
42884;SDS011;28534;48.100;11.584;2022-07-24T09:34:26;11.50;;;10.02;;
42884;SDS011;28534;48.100;11.584;2022-07-24T09:44:30;14.13;;;11.63;;
42884;SDS011;28534;48.100;11.584;2022-07-24T09:54:33;12.02;;;10.13;;
42884;SDS011;28534;48.100;11.584;2022-07-24T10:04:37;14.60;;;10.77;;
42884;SDS011;28534;48.100;11.584;2022-07-24T10:14:42;14.23;;;11.18;;
